createdAt,value
2023-04-01T00:00:24.328Z,73.3790
2023-04-01T00:01:25.159Z,73.3753
2023-04-01T00:02:25.999Z,73.3118
2023-04-01T00:03:27.284Z,73.2988
2023-04-01T00:04:29.328Z,73.2949
2023-04-01T00:05:30.159Z,73.2818
2023-04-01T00:06:31.436Z,73.2763
2023-04-01T00:07:32.239Z,73.2680
2023-04-01T00:08:33.060Z,73.2437
2023-04-01T00:09:33.883Z,73.2021
2023-04-01T00:10:34.715Z,73.1620
2023-04-01T00:11:35.618Z,73.1491
2023-04-01T00:12:36.468Z,73.1288
2023-04-01T00:13:37.340Z,73.1223
2023-04-01T00:14:38.165Z,73.0945
2023-04-01T00:15:38.969Z,73.0634
2023-04-01T00:16:39.853Z,73.0311
2023-04-01T00:17:40.801Z,73.0098
2023-04-01T00:18:41.617Z,72.9838
2023-04-01T00:19:42.567Z,72.9763
2023-04-01T00:20:44.357Z,72.9567
2023-04-01T00:21:45.169Z,72.9110
2023-04-01T00:22:45.960Z,72.8813
2023-04-01T00:23:46.808Z,72.7970
2023-04-01T00:24:47.609Z,72.7455
2023-04-01T00:25:48.421Z,72.7195
2023-04-01T00:26:49.292Z,72.7080
2023-04-01T00:27:50.119Z,72.7126
2023-04-01T00:28:50.931Z,72.7194
2023-04-01T00:29:51.776Z,72.7314
2023-04-01T00:30:52.605Z,72.7124
2023-04-01T00:31:53.448Z,72.6914
2023-04-01T00:32:54.340Z,72.6661
2023-04-01T00:33:55.300Z,72.6459
2023-04-01T00:34:56.194Z,72.6477
2023-04-01T00:35:57.079Z,72.6454
2023-04-01T00:36:57.944Z,72.6482
2023-04-01T00:37:58.801Z,72.6520
2023-04-01T00:38:59.644Z,72.6604
2023-04-01T00:40:00.497Z,72.6507
2023-04-01T00:41:01.308Z,72.6451
2023-04-01T00:42:02.200Z,72.6339
2023-04-01T00:43:03.122Z,72.5870
2023-04-01T00:44:03.927Z,72.5267
2023-04-01T00:45:04.696Z,72.3917
2023-04-01T00:46:05.540Z,72.2998
2023-04-01T00:47:06.433Z,72.2307
2023-04-01T00:48:07.436Z,72.1719
2023-04-01T00:49:08.445Z,72.1338
2023-04-01T00:50:09.351Z,72.0666
2023-04-01T00:51:10.274Z,72.0170
2023-04-01T00:52:11.107Z,71.9392
2023-04-01T00:53:11.948Z,71.9377
2023-04-01T00:54:12.881Z,71.9059
2023-04-01T00:55:13.701Z,71.8464
2023-04-01T00:56:14.487Z,71.8217
2023-04-01T00:57:15.372Z,71.8201
2023-04-01T00:58:16.378Z,71.8190
2023-04-01T00:59:17.175Z,71.7955
2023-04-01T01:00:18.031Z,71.7717
2023-04-01T01:01:18.898Z,71.7403
2023-04-01T01:02:19.868Z,71.7377
2023-04-01T01:03:20.696Z,71.7365
2023-04-01T01:04:21.612Z,71.7331
2023-04-01T01:05:22.405Z,71.7202
2023-04-01T01:06:23.607Z,71.7366
2023-04-01T01:07:24.497Z,71.7141
2023-04-01T01:08:25.364Z,71.6959
2023-04-01T01:09:26.158Z,71.6927
2023-04-01T01:10:26.962Z,71.6857
2023-04-01T01:11:27.994Z,71.6706
2023-04-01T01:12:28.138Z,71.6378
2023-04-01T01:13:28.935Z,71.6114
2023-04-01T01:14:29.745Z,71.5863
2023-04-01T01:15:30.776Z,71.5890
2023-04-01T01:16:32.103Z,71.5972
2023-04-01T01:17:32.998Z,71.6020
2023-04-01T01:18:33.946Z,71.6201
2023-04-01T01:19:34.886Z,71.6554
2023-04-01T01:20:35.700Z,71.6872
2023-04-01T01:21:36.517Z,71.7268
2023-04-01T01:22:37.456Z,71.7749
2023-04-01T01:23:38.310Z,71.8176
2023-04-01T01:24:39.204Z,71.8714
2023-04-01T01:25:40.071Z,71.9450
2023-04-01T01:26:40.910Z,72.0424
2023-04-01T01:27:41.780Z,72.0938
2023-04-01T01:28:42.614Z,72.1614
2023-04-01T01:29:43.462Z,72.2384
2023-04-01T01:30:44.329Z,72.2881
2023-04-01T01:31:45.168Z,72.3379
2023-04-01T01:32:46.024Z,72.4420
2023-04-01T01:33:46.876Z,72.4951
2023-04-01T01:34:47.747Z,72.5207
2023-04-01T01:35:48.594Z,72.5754
2023-04-01T01:36:49.464Z,72.6210
2023-04-01T01:37:50.357Z,72.6451
2023-04-01T01:38:51.178Z,72.6743
2023-04-01T01:39:52.028Z,72.7167
2023-04-01T01:40:52.900Z,72.6949
2023-04-01T01:41:53.695Z,72.6791
2023-04-01T01:42:54.593Z,72.7157
2023-04-01T01:43:55.549Z,72.7482
2023-04-01T01:44:56.380Z,72.7792
2023-04-01T01:45:57.210Z,72.8003
2023-04-01T01:46:57.990Z,72.8184
2023-04-01T01:47:59.080Z,72.8660
2023-04-01T01:48:59.859Z,72.9154
2023-04-01T01:50:00.650Z,72.9263
2023-04-01T01:51:01.417Z,72.9261
2023-04-01T01:52:02.269Z,72.9317
2023-04-01T01:53:03.224Z,72.9177
2023-04-01T01:54:03.978Z,72.8811
2023-04-01T01:55:04.805Z,72.8211
2023-04-01T01:56:05.612Z,72.7928
2023-04-01T01:57:06.481Z,72.7807
2023-04-01T01:58:07.340Z,72.7637
2023-04-01T01:59:08.196Z,72.7605
2023-04-01T02:00:08.974Z,72.7278
2023-04-01T02:01:09.863Z,72.6995
2023-04-01T02:02:10.634Z,72.6440
2023-04-01T02:03:11.475Z,72.5864
2023-04-01T02:04:12.362Z,72.5561
2023-04-01T02:05:13.271Z,72.5362
2023-04-01T02:06:14.078Z,72.5183
2023-04-01T02:07:14.843Z,72.4798
2023-04-01T02:08:15.727Z,72.4683
2023-04-01T02:09:16.595Z,72.4596
2023-04-01T02:10:17.511Z,72.4293
2023-04-01T02:11:18.294Z,72.3412
2023-04-01T02:12:19.107Z,72.2766
2023-04-01T02:13:19.968Z,72.2282
2023-04-01T02:14:20.816Z,72.1497
2023-04-01T02:15:21.605Z,72.1081
2023-04-01T02:16:22.421Z,72.0144
2023-04-01T02:17:23.357Z,71.9495
2023-04-01T02:18:24.220Z,71.8981
2023-04-01T02:19:25.033Z,71.8782
2023-04-01T02:20:25.866Z,71.8186
2023-04-01T02:21:26.737Z,71.7349
2023-04-01T02:22:27.570Z,71.6776
2023-04-01T02:23:28.640Z,71.6239
2023-04-01T02:24:29.504Z,71.5784
2023-04-01T02:25:30.413Z,71.5830
2023-04-01T02:26:31.656Z,71.5605
2023-04-01T02:27:32.505Z,71.5437
2023-04-01T02:28:33.326Z,71.5187
2023-04-01T02:29:34.133Z,71.5164
2023-04-01T02:30:34.970Z,71.5284
2023-04-01T02:31:35.882Z,71.5225
2023-04-01T02:32:36.732Z,71.4489
2023-04-01T02:33:37.582Z,71.4204
2023-04-01T02:34:38.394Z,71.3767
2023-04-01T02:35:39.239Z,71.1736
2023-04-01T02:36:40.264Z,71.0820
2023-04-01T02:37:41.103Z,71.1009
2023-04-01T02:38:41.961Z,71.1003
2023-04-01T02:39:42.725Z,71.1287
2023-04-01T02:40:43.640Z,71.1541
2023-04-01T02:41:44.430Z,71.1788
2023-04-01T02:42:45.307Z,71.1775
2023-04-01T02:43:46.246Z,71.1455
2023-04-01T02:44:47.082Z,71.1442
2023-04-01T02:45:47.900Z,71.1560
2023-04-01T02:46:48.749Z,71.1727
2023-04-01T02:47:49.634Z,71.2128
2023-04-01T02:48:50.478Z,71.2315
2023-04-01T02:49:51.414Z,71.2546
2023-04-01T02:50:52.217Z,71.3023
2023-04-01T02:51:53.065Z,71.3925
2023-04-01T02:52:53.953Z,71.4567
2023-04-01T02:53:54.804Z,71.4937
2023-04-01T02:54:55.629Z,71.5828
2023-04-01T02:55:56.466Z,71.6928
2023-04-01T02:56:57.413Z,71.6945
2023-04-01T02:57:58.496Z,71.6839
2023-04-01T02:58:59.338Z,71.7073
2023-04-01T03:00:00.214Z,71.7351
2023-04-01T03:01:01.121Z,71.7767
2023-04-01T03:02:01.973Z,71.8279
2023-04-01T03:03:03.150Z,71.9199
2023-04-01T03:04:04.792Z,71.9700
2023-04-01T03:05:05.641Z,72.0145
2023-04-01T03:06:06.520Z,72.0584
2023-04-01T03:07:07.428Z,72.0490
2023-04-01T03:08:08.321Z,72.0364
2023-04-01T03:09:09.205Z,72.0661
2023-04-01T03:10:10.015Z,72.0439
2023-04-01T03:11:10.838Z,71.9986
2023-04-01T03:12:11.724Z,71.9501
2023-04-01T03:13:12.562Z,71.8670
2023-04-01T03:14:13.448Z,71.8401
2023-04-01T03:15:14.318Z,71.8294
2023-04-01T03:16:15.218Z,71.8390
2023-04-01T03:17:16.178Z,71.8443
2023-04-01T03:18:17.099Z,71.8712
2023-04-01T03:19:17.914Z,71.9044
2023-04-01T03:20:18.803Z,71.9501
2023-04-01T03:21:19.619Z,71.9675
2023-04-01T03:22:20.470Z,72.0135
2023-04-01T03:23:21.398Z,72.0023
2023-04-01T03:24:22.228Z,72.0184
2023-04-01T03:25:23.110Z,72.0724
2023-04-01T03:26:23.997Z,72.1123
2023-04-01T03:27:24.802Z,72.1298
2023-04-01T03:28:25.651Z,72.1446
2023-04-01T03:29:26.502Z,72.1280
2023-04-01T03:30:27.346Z,72.1047
2023-04-01T03:31:28.455Z,72.0970
2023-04-01T03:32:29.744Z,72.0860
2023-04-01T03:33:30.589Z,72.0901
2023-04-01T03:34:31.385Z,72.0955
2023-04-01T03:35:32.643Z,72.0779
2023-04-01T03:36:34.154Z,72.0759
2023-04-01T03:37:35.060Z,72.0768
2023-04-01T03:38:35.932Z,72.0702
2023-04-01T03:39:36.772Z,72.0804
2023-04-01T03:40:37.675Z,72.0944
2023-04-01T03:41:38.481Z,72.0974
2023-04-01T03:42:39.354Z,72.1024
2023-04-01T03:43:40.192Z,72.1201
2023-04-01T03:44:41.009Z,72.1516
2023-04-01T03:45:41.890Z,72.1972
2023-04-01T03:46:42.722Z,72.2269
2023-04-01T03:47:43.975Z,72.2604
2023-04-01T03:48:45.038Z,72.2876
2023-04-01T03:49:45.955Z,72.2834
2023-04-01T03:50:46.797Z,72.2647
2023-04-01T03:51:47.587Z,72.2591
2023-04-01T03:52:48.386Z,72.2503
2023-04-01T03:53:49.214Z,72.2297
2023-04-01T03:54:50.093Z,72.2390
2023-04-01T03:55:50.970Z,72.1729
2023-04-01T03:56:51.883Z,72.0906
2023-04-01T03:57:52.946Z,72.0393
2023-04-01T03:58:53.786Z,72.0027
2023-04-01T03:59:54.603Z,71.9851
2023-04-01T04:00:55.414Z,71.9500
2023-04-01T04:01:56.236Z,71.8846
2023-04-01T04:02:57.446Z,71.7826
2023-04-01T04:03:58.575Z,71.6873
2023-04-01T04:04:59.369Z,71.6646
2023-04-01T04:06:00.212Z,71.6496
2023-04-01T04:07:01.035Z,71.6577
2023-04-01T04:08:01.943Z,71.6728
2023-04-01T04:09:02.780Z,71.7549
2023-04-01T04:10:03.657Z,71.8098
2023-04-01T04:11:04.498Z,71.7408
2023-04-01T04:12:05.361Z,71.6855
2023-04-01T04:13:06.214Z,71.6811
2023-04-01T04:14:07.110Z,71.6843
2023-04-01T04:15:08.055Z,71.6892
2023-04-01T04:16:08.947Z,71.6943
2023-04-01T04:17:09.771Z,71.6866
2023-04-01T04:18:10.585Z,71.6728
2023-04-01T04:19:11.458Z,71.6500
2023-04-01T04:20:12.684Z,71.6320
2023-04-01T04:21:13.619Z,71.5837
2023-04-01T04:22:14.436Z,71.5515
2023-04-01T04:23:15.282Z,71.5324
2023-04-01T04:24:16.154Z,71.5373
2023-04-01T04:25:17.073Z,71.5303
2023-04-01T04:26:17.894Z,71.5065
2023-04-01T04:27:18.754Z,71.4784
2023-04-01T04:28:19.578Z,71.4228
2023-04-01T04:29:20.486Z,71.3610
2023-04-01T04:30:21.375Z,71.2713
2023-04-01T04:31:22.201Z,71.2419
2023-04-01T04:32:23.034Z,71.1733
2023-04-01T04:33:23.885Z,71.1371
2023-04-01T04:34:24.803Z,71.1450
2023-04-01T04:35:25.649Z,71.1532
2023-04-01T04:36:26.471Z,71.2116
2023-04-01T04:37:27.301Z,71.3252
2023-04-01T04:38:28.105Z,71.4397
2023-04-01T04:39:28.953Z,71.5763
2023-04-01T04:40:29.829Z,71.6588
2023-04-01T04:41:30.717Z,71.8054
2023-04-01T04:42:31.609Z,71.9874
2023-04-01T04:43:32.657Z,72.2641
2023-04-01T04:44:33.582Z,72.3457
2023-04-01T04:45:34.607Z,72.4242
2023-04-01T04:46:36.346Z,72.4618
2023-04-01T04:47:37.253Z,72.5007
2023-04-01T04:48:38.084Z,72.5277
2023-04-01T04:49:38.986Z,72.5531
2023-04-01T04:50:39.896Z,72.6245
2023-04-01T04:51:40.735Z,72.7156
2023-04-01T04:52:41.546Z,72.7890
2023-04-01T04:53:42.414Z,72.8550
2023-04-01T04:54:43.271Z,72.9204
2023-04-01T04:55:44.082Z,72.9548
2023-04-01T04:56:44.946Z,73.0097
2023-04-01T04:57:45.820Z,73.0683
2023-04-01T04:58:46.698Z,73.1124
2023-04-01T04:59:47.548Z,73.1211
2023-04-01T05:00:48.399Z,73.1602
2023-04-01T05:01:49.362Z,73.2461
2023-04-01T05:02:50.352Z,73.2789
2023-04-01T05:03:51.341Z,73.3247
2023-04-01T05:04:52.273Z,73.3953
2023-04-01T05:05:53.173Z,73.4465
2023-04-01T05:06:54.056Z,73.5002
2023-04-01T05:07:54.986Z,73.5952
2023-04-01T05:08:55.831Z,73.5929
2023-04-01T05:09:56.700Z,73.6760
2023-04-01T05:10:57.646Z,73.7838
2023-04-01T05:11:58.434Z,73.7761
2023-04-01T05:12:59.293Z,73.7449
2023-04-01T05:14:00.155Z,73.7518
2023-04-01T05:15:00.988Z,73.7476
2023-04-01T05:16:01.753Z,73.7644
2023-04-01T05:17:02.666Z,73.7898
2023-04-01T05:18:03.586Z,73.8155
2023-04-01T05:19:04.506Z,73.8606
2023-04-01T05:20:05.386Z,73.8972
2023-04-01T05:21:06.263Z,73.9440
2023-04-01T05:22:07.066Z,74.0244
2023-04-01T05:23:08.079Z,74.1221
2023-04-01T05:24:08.916Z,74.2053
2023-04-01T05:25:09.779Z,74.2423
2023-04-01T05:26:10.606Z,74.2950
2023-04-01T05:27:11.439Z,74.3583
2023-04-01T05:28:12.301Z,74.3909
2023-04-01T05:29:13.194Z,74.4510
2023-04-01T05:30:14.083Z,74.5619
2023-04-01T05:31:14.993Z,74.6046
2023-04-01T05:32:15.903Z,74.6583
2023-04-01T05:33:16.728Z,74.6988
2023-04-01T05:34:17.605Z,74.7733
2023-04-01T05:35:18.456Z,74.7948
2023-04-01T05:36:19.412Z,74.8217
2023-04-01T05:37:20.234Z,74.8465
2023-04-01T05:38:21.095Z,74.8952
2023-04-01T05:39:21.988Z,74.9311
2023-04-01T05:40:22.844Z,75.0164
2023-04-01T05:41:23.811Z,75.1702
2023-04-01T05:42:24.685Z,75.3610
2023-04-01T05:43:25.562Z,75.5082
2023-04-01T05:44:26.422Z,75.5879
2023-04-01T05:45:27.268Z,75.6196
2023-04-01T05:46:28.172Z,75.6336
2023-04-01T05:47:29.144Z,75.6860
2023-04-01T05:48:30.114Z,75.7880
2023-04-01T05:49:30.969Z,75.8359
2023-04-01T05:50:31.830Z,75.8612
2023-04-01T05:51:32.700Z,75.9582
2023-04-01T05:52:33.550Z,76.0287
2023-04-01T05:53:34.371Z,76.0548
2023-04-01T05:54:35.243Z,76.0739
2023-04-01T05:55:36.153Z,76.1620
2023-04-01T05:56:37.059Z,76.2497
2023-04-01T05:57:38.251Z,76.2927
2023-04-01T05:58:39.091Z,76.2826
2023-04-01T05:59:39.969Z,76.2928
2023-04-01T06:00:40.839Z,76.3636
2023-04-01T06:01:41.678Z,76.4053
2023-04-01T06:02:42.584Z,76.4255
2023-04-01T06:03:43.810Z,76.4445
2023-04-01T06:04:45.632Z,76.4327
2023-04-01T06:05:46.887Z,76.4234
2023-04-01T06:06:47.760Z,76.4183
2023-04-01T06:07:48.608Z,76.3892
2023-04-01T06:08:49.387Z,76.3324
2023-04-01T06:09:50.288Z,76.3036
2023-04-01T06:10:51.133Z,76.3013
2023-04-01T06:11:52.002Z,76.3013
2023-04-01T06:12:52.854Z,76.3071
2023-04-01T06:13:53.714Z,76.3249
2023-04-01T06:14:54.563Z,76.3735
2023-04-01T06:15:55.428Z,76.4213
2023-04-01T06:16:56.199Z,76.4555
2023-04-01T06:17:57.061Z,76.4766
2023-04-01T06:18:57.851Z,76.5002
2023-04-01T06:19:58.740Z,76.4632
2023-04-01T06:20:59.572Z,76.4072
2023-04-01T06:22:00.705Z,76.3219
2023-04-01T06:23:01.601Z,76.2435
2023-04-01T06:24:02.464Z,76.1970
2023-04-01T06:25:03.428Z,76.1602
2023-04-01T06:26:04.286Z,76.1180
2023-04-01T06:27:05.117Z,76.0865
2023-04-01T06:28:07.732Z,76.0510
2023-04-01T06:29:07.857Z,76.0157
2023-04-01T06:30:08.776Z,75.9726
2023-04-01T06:31:09.674Z,75.9414
2023-04-01T06:32:10.959Z,75.9078
2023-04-01T06:33:12.400Z,75.8805
2023-04-01T06:34:13.309Z,75.8458
2023-04-01T06:35:14.194Z,75.8208
2023-04-01T06:36:15.042Z,75.7939
2023-04-01T06:37:15.869Z,75.7538
2023-04-01T06:38:16.681Z,75.7168
2023-04-01T06:39:17.581Z,75.6752
2023-04-01T06:40:18.422Z,75.6091
2023-04-01T06:41:19.266Z,75.5200
2023-04-01T06:42:20.184Z,75.4634
2023-04-01T06:43:21.110Z,75.3763
2023-04-01T06:44:21.882Z,75.3212
2023-04-01T06:45:22.846Z,75.2632
2023-04-01T06:46:23.743Z,75.2154
2023-04-01T06:47:24.970Z,75.1809
2023-04-01T06:48:25.841Z,75.0991
2023-04-01T06:49:26.732Z,74.9615
2023-04-01T06:50:27.716Z,74.8683
2023-04-01T06:51:28.661Z,74.7770
2023-04-01T06:52:29.478Z,74.7361
2023-04-01T06:53:30.309Z,74.7052
2023-04-01T06:54:31.166Z,74.6405
2023-04-01T06:55:32.165Z,74.5089
2023-04-01T06:56:33.279Z,74.4291
2023-04-01T06:57:34.233Z,74.3032
2023-04-01T06:58:35.036Z,74.1057
2023-04-01T06:59:35.847Z,73.9688
2023-04-01T07:00:35.916Z,73.8576
2023-04-01T07:01:37.549Z,73.8314
2023-04-01T07:02:38.626Z,73.6884
2023-04-01T07:03:39.621Z,73.5820
2023-04-01T07:04:40.787Z,73.4124
2023-04-01T07:05:41.796Z,73.3617
2023-04-01T07:06:42.672Z,73.3398
2023-04-01T07:07:43.565Z,73.2929
2023-04-01T07:08:44.458Z,73.2451
2023-04-01T07:09:45.308Z,73.2095
2023-04-01T07:10:46.215Z,73.1784
2023-04-01T07:11:47.061Z,73.1609
2023-04-01T07:12:47.826Z,73.1121
2023-04-01T07:13:48.675Z,73.0473
2023-04-01T07:14:49.502Z,72.9169
2023-04-01T07:15:50.372Z,72.7991
2023-04-01T07:16:51.253Z,72.6970
2023-04-01T07:17:52.133Z,72.5369
2023-04-01T07:18:53.060Z,72.3963
2023-04-01T07:19:53.899Z,72.3730
2023-04-01T07:20:54.700Z,72.3367
2023-04-01T07:21:55.580Z,72.3016
2023-04-01T07:22:56.475Z,72.3001
2023-04-01T07:23:57.284Z,72.2939
2023-04-01T07:24:58.160Z,72.3103
2023-04-01T07:25:59.020Z,72.3701
2023-04-01T07:26:59.918Z,72.4671
2023-04-01T07:28:00.742Z,72.5831
2023-04-01T07:29:01.561Z,72.7392
2023-04-01T07:30:02.379Z,72.9773
2023-04-01T07:31:03.218Z,73.0839
2023-04-01T07:32:04.123Z,73.2061
2023-04-01T07:33:05.007Z,73.3222
2023-04-01T07:34:05.874Z,73.4816
2023-04-01T07:35:06.706Z,73.6163
2023-04-01T07:36:07.556Z,73.7701
2023-04-01T07:37:08.407Z,73.8624
2023-04-01T07:38:09.210Z,73.9858
2023-04-01T07:39:10.049Z,74.1207
2023-04-01T07:40:10.961Z,74.1473
2023-04-01T07:41:11.867Z,74.2143
2023-04-01T07:42:12.658Z,74.3104
2023-04-01T07:43:13.469Z,74.3828
2023-04-01T07:44:14.465Z,74.5292
2023-04-01T07:45:15.243Z,74.6904
2023-04-01T07:46:16.330Z,74.7943
2023-04-01T07:47:17.247Z,74.8393
2023-04-01T07:48:18.164Z,74.9134
2023-04-01T07:49:19.030Z,75.0860
2023-04-01T07:50:19.887Z,75.1847
2023-04-01T07:51:20.664Z,75.2704
2023-04-01T07:52:21.482Z,75.3182
2023-04-01T07:53:22.297Z,75.3681
2023-04-01T07:54:23.112Z,75.4030
2023-04-01T07:55:23.954Z,75.4617
2023-04-01T07:56:24.799Z,75.5640
2023-04-01T07:57:25.705Z,75.6411
2023-04-01T07:58:26.732Z,75.7073
2023-04-01T07:59:27.524Z,75.7527
2023-04-01T08:00:29.341Z,75.8505
2023-04-01T08:01:30.178Z,75.9122
2023-04-01T08:02:31.183Z,75.9496
2023-04-01T08:03:32.376Z,75.9878
2023-04-01T08:04:33.507Z,76.0111
2023-04-01T08:05:34.833Z,76.0998
2023-04-01T08:06:36.644Z,76.2378
2023-04-01T08:07:37.497Z,76.2530
2023-04-01T08:08:38.305Z,76.2796
2023-04-01T08:09:39.169Z,76.3148
2023-04-01T08:10:39.954Z,76.3683
2023-04-01T08:11:43.524Z,76.4133
2023-04-01T08:12:42.564Z,76.5297
2023-04-01T08:13:43.359Z,76.6308
2023-04-01T08:14:44.195Z,76.6511
2023-04-01T08:15:45.068Z,76.6776
2023-04-01T08:16:45.981Z,76.7566
2023-04-01T08:17:46.813Z,76.8129
2023-04-01T08:18:47.703Z,76.9331
2023-04-01T08:19:48.495Z,77.0237
2023-04-01T08:20:49.374Z,77.0787
2023-04-01T08:21:50.207Z,77.1685
2023-04-01T08:22:51.070Z,77.2179
2023-04-01T08:23:51.905Z,77.2416
2023-04-01T08:24:52.751Z,77.2513
2023-04-01T08:25:53.602Z,77.2853
2023-04-01T08:26:54.462Z,77.3496
2023-04-01T08:27:55.345Z,77.3849
2023-04-01T08:28:56.192Z,77.4195
2023-04-01T08:29:57.100Z,77.4623
2023-04-01T08:30:57.974Z,77.5313
2023-04-01T08:31:58.958Z,77.6004
2023-04-01T08:32:59.937Z,77.7128
2023-04-01T08:34:00.846Z,77.7127
2023-04-01T08:35:01.827Z,77.7348
2023-04-01T08:36:02.758Z,77.7940
2023-04-01T08:37:03.691Z,77.8155
2023-04-01T08:38:04.550Z,77.8161
2023-04-01T08:39:05.346Z,77.8432
2023-04-01T08:40:06.294Z,77.8903
2023-04-01T08:41:07.254Z,77.8935
2023-04-01T08:42:08.154Z,77.9593
2023-04-01T08:43:09.163Z,78.0378
2023-04-01T08:44:09.991Z,78.0746
2023-04-01T08:45:12.016Z,78.1535
2023-04-01T08:46:11.044Z,78.2066
2023-04-01T08:47:11.974Z,78.2263
2023-04-01T08:48:12.901Z,78.2769
2023-04-01T08:49:13.887Z,78.3640
2023-04-01T08:50:14.765Z,78.3551
2023-04-01T08:51:15.638Z,78.3875
2023-04-01T08:52:16.483Z,78.4442
2023-04-01T08:53:17.279Z,78.5396
2023-04-01T08:54:18.224Z,78.6241
2023-04-01T08:55:19.110Z,78.6873
2023-04-01T08:56:19.930Z,78.6836
2023-04-01T08:57:20.859Z,78.6802
2023-04-01T08:58:21.761Z,78.6888
2023-04-01T08:59:22.602Z,78.6813
2023-04-01T09:00:23.431Z,78.6834
2023-04-01T09:01:24.362Z,78.7388
2023-04-01T09:02:25.276Z,78.7731
2023-04-01T09:03:26.430Z,78.8040
2023-04-01T09:04:27.679Z,78.8713
2023-04-01T09:05:28.554Z,78.9649
2023-04-01T09:06:29.478Z,79.0204
2023-04-01T09:07:30.341Z,79.1028
2023-04-01T09:08:31.180Z,79.1088
2023-04-01T09:09:32.029Z,79.1253
2023-04-01T09:10:32.896Z,79.1606
2023-04-01T09:11:33.834Z,79.1949
2023-04-01T09:12:34.681Z,79.2209
2023-04-01T09:13:35.605Z,79.3368
2023-04-01T09:14:36.398Z,79.3730
2023-04-01T09:15:37.478Z,79.4174
2023-04-01T09:16:38.609Z,79.4543
2023-04-01T09:17:39.522Z,79.5134
2023-04-01T09:18:40.526Z,79.5540
2023-04-01T09:19:41.412Z,79.5714
2023-04-01T09:20:42.232Z,79.6201
2023-04-01T09:21:43.063Z,79.5988
2023-04-01T09:22:43.922Z,79.5963
2023-04-01T09:23:44.786Z,79.5579
2023-04-01T09:24:45.695Z,79.6080
2023-04-01T09:25:46.485Z,79.6359
2023-04-01T09:26:47.397Z,79.6862
2023-04-01T09:27:48.445Z,79.7140
2023-04-01T09:28:50.262Z,79.7036
2023-04-01T09:29:51.170Z,79.6878
2023-04-01T09:30:52.014Z,79.6466
2023-04-01T09:31:53.068Z,79.6433
2023-04-01T09:32:54.212Z,79.6070
2023-04-01T09:33:55.125Z,79.5758
2023-04-01T09:34:56.066Z,79.6167
2023-04-01T09:35:57.001Z,79.6490
2023-04-01T09:36:57.858Z,79.6775
2023-04-01T09:37:58.704Z,79.6803
2023-04-01T09:38:59.558Z,79.7011
2023-04-01T09:40:00.401Z,79.7013
2023-04-01T09:41:01.289Z,79.7493
2023-04-01T09:42:02.169Z,79.7330
2023-04-01T09:43:03.069Z,79.7281
2023-04-01T09:44:03.921Z,79.6884
2023-04-01T09:45:04.855Z,79.6638
2023-04-01T09:46:05.699Z,79.6249
2023-04-01T09:47:06.606Z,79.5942
2023-04-01T09:48:07.530Z,79.5687
2023-04-01T09:49:08.510Z,79.5102
2023-04-01T09:50:09.400Z,79.4286
2023-04-01T09:51:10.202Z,79.3881
2023-04-01T09:52:11.032Z,79.3085
2023-04-01T09:53:11.873Z,79.2356
2023-04-01T09:54:12.746Z,79.1943
2023-04-01T09:55:13.784Z,79.1421
2023-04-01T09:56:14.624Z,79.0774
2023-04-01T09:57:15.458Z,78.9981
2023-04-01T09:58:16.339Z,78.9248
2023-04-01T09:59:17.145Z,78.8540
2023-04-01T10:00:18.034Z,78.8115
2023-04-01T10:01:19.942Z,78.7719
2023-04-01T10:02:20.866Z,78.7078
2023-04-01T10:03:21.653Z,78.6423
2023-04-01T10:04:22.485Z,78.5783
2023-04-01T10:05:23.405Z,78.5056
2023-04-01T10:06:24.148Z,78.3726
2023-04-01T10:07:24.977Z,78.1987
2023-04-01T10:08:25.747Z,77.8493
2023-04-01T10:09:26.606Z,77.6632
2023-04-01T10:10:27.496Z,77.5426
2023-04-01T10:11:28.395Z,77.3775
2023-04-01T10:12:29.290Z,77.1353
2023-04-01T10:13:30.132Z,76.7819
2023-04-01T10:14:30.969Z,76.6951
2023-04-01T10:15:31.947Z,76.6292
2023-04-01T10:16:33.587Z,76.4611
2023-04-01T10:17:34.410Z,76.2699
2023-04-01T10:18:35.300Z,76.1738
2023-04-01T10:19:36.242Z,76.0709
2023-04-01T10:20:37.075Z,75.9956
2023-04-01T10:21:37.858Z,75.9719
2023-04-01T10:22:38.685Z,75.9610
2023-04-01T10:23:39.464Z,75.9050
2023-04-01T10:24:40.354Z,75.8613
2023-04-01T10:25:41.262Z,75.8206
2023-04-01T10:26:42.085Z,75.8153
2023-04-01T10:27:43.292Z,75.8038
2023-04-01T10:28:44.082Z,75.7833
2023-04-01T10:29:44.901Z,75.5057
2023-04-01T10:30:45.725Z,74.8606
2023-04-01T10:31:46.690Z,74.6751
2023-04-01T10:32:47.613Z,74.5936
2023-04-01T10:33:48.445Z,74.6235
2023-04-01T10:34:49.239Z,74.6507
2023-04-01T10:35:50.118Z,74.5815
2023-04-01T10:36:50.994Z,74.5606
2023-04-01T10:37:51.833Z,74.4387
2023-04-01T10:38:52.643Z,74.4165
2023-04-01T10:39:53.434Z,74.3887
2023-04-01T10:40:54.233Z,74.3592
2023-04-01T10:41:55.004Z,74.2939
2023-04-01T10:42:55.850Z,74.2316
2023-04-01T10:43:56.734Z,74.2482
2023-04-01T10:44:57.536Z,74.1715
2023-04-01T10:45:59.405Z,74.1486
2023-04-01T10:47:00.235Z,74.1476
2023-04-01T10:48:01.015Z,74.1655
2023-04-01T10:49:01.821Z,74.1549
2023-04-01T10:50:02.639Z,74.1486
2023-04-01T10:51:03.437Z,74.1523
2023-04-01T10:52:04.285Z,74.0606
2023-04-01T10:53:07.162Z,73.9989
2023-04-01T10:54:06.194Z,73.9751
2023-04-01T10:55:06.979Z,73.9189
2023-04-01T10:56:07.799Z,73.9143
2023-04-01T10:57:08.606Z,73.8696
2023-04-01T10:58:09.425Z,73.8103
2023-04-01T10:59:10.244Z,73.7677
2023-04-01T11:00:11.058Z,73.7801
2023-04-01T11:01:11.857Z,73.7748
2023-04-01T11:02:12.707Z,73.7556
2023-04-01T11:03:14.126Z,73.6911
2023-04-01T11:04:15.298Z,73.5694
2023-04-01T11:05:16.908Z,73.4173
2023-04-01T11:06:17.300Z,73.3501
2023-04-01T11:07:18.173Z,73.2692
2023-04-01T11:08:18.972Z,73.1999
2023-04-01T11:09:19.882Z,73.1327
2023-04-01T11:10:20.718Z,72.9759
2023-04-01T11:11:21.533Z,72.7111
2023-04-01T11:12:22.344Z,72.5091
2023-04-01T11:13:23.156Z,72.3423
2023-04-01T11:14:24.113Z,72.3135
2023-04-01T11:15:24.959Z,72.1877
2023-04-01T11:16:25.782Z,71.9683
2023-04-01T11:17:26.675Z,71.8852
2023-04-01T11:18:27.578Z,71.8590
2023-04-01T11:19:28.495Z,71.7631
2023-04-01T11:20:29.287Z,71.6913
2023-04-01T11:21:30.163Z,71.6276
2023-04-01T11:22:31.015Z,71.4243
2023-04-01T11:23:31.811Z,71.1641
2023-04-01T11:24:32.658Z,70.9173
2023-04-01T11:25:33.754Z,70.8642
2023-04-01T11:26:35.356Z,70.8509
2023-04-01T11:27:37.499Z,70.8961
2023-04-01T11:28:38.331Z,70.9284
2023-04-01T11:29:40.545Z,70.7801
2023-04-01T11:30:40.677Z,70.7590
2023-04-01T11:31:41.565Z,70.8235
2023-04-01T11:32:42.682Z,70.8589
2023-04-01T11:33:43.558Z,70.9509
2023-04-01T11:34:44.375Z,71.0479
2023-04-01T11:35:45.188Z,71.1788
2023-04-01T11:36:46.063Z,71.3805
2023-04-01T11:37:46.853Z,71.4773
2023-04-01T11:38:47.646Z,71.6071
2023-04-01T11:39:48.514Z,71.7156
2023-04-01T11:40:49.422Z,71.7500
2023-04-01T11:41:50.294Z,71.8141
2023-04-01T11:42:51.168Z,71.8273
2023-04-01T11:43:52.013Z,71.8890
2023-04-01T11:44:52.864Z,71.9421
2023-04-01T11:45:53.734Z,72.0235
2023-04-01T11:46:54.869Z,72.1055
2023-04-01T11:47:55.783Z,72.1873
2023-04-01T11:48:56.559Z,72.2230
2023-04-01T11:49:57.399Z,72.2294
2023-04-01T11:50:58.225Z,72.2765
2023-04-01T11:51:59.167Z,72.3182
2023-04-01T11:53:00.004Z,72.2907
2023-04-01T11:54:00.933Z,72.2878
2023-04-01T11:55:01.780Z,72.3197
2023-04-01T11:56:02.721Z,72.3599
2023-04-01T11:57:03.580Z,72.3602
2023-04-01T11:58:04.455Z,72.3750
2023-04-01T11:59:05.281Z,72.4185
2023-04-01T12:00:06.004Z,72.4420
2023-04-01T12:01:06.867Z,72.3866
2023-04-01T12:02:07.772Z,72.3099
2023-04-01T12:03:08.684Z,72.2042
2023-04-01T12:04:09.823Z,71.9913
2023-04-01T12:05:11.423Z,71.7174
2023-04-01T12:06:12.252Z,71.5937
2023-04-01T12:07:13.094Z,71.4806
2023-04-01T12:08:13.878Z,71.3177
2023-04-01T12:09:14.682Z,71.2899
2023-04-01T12:10:15.482Z,71.3203
2023-04-01T12:11:16.455Z,71.3765
2023-04-01T12:12:17.313Z,71.3875
2023-04-01T12:13:18.154Z,71.2266
2023-04-01T12:14:18.908Z,70.9925
2023-04-01T12:15:19.707Z,70.8438
2023-04-01T12:16:20.585Z,70.7565